Time;durP1;ratioP1;P1;durP2;ratioP2;P2;SDS_P1;SDS_P2;PMS_P1;PMS_P2;Temp;Humidity;BMP_temperature;BMP_pressure;BME280_temperature;BME280_humidity;BME280_pressure;Samples;Min_cycle;Max_cycle;Signal;HPM_P1;HPM_P2
2023/12/31 00:00:34;;;;;;;4.20;2.80;;;;;;;7.94;65.34;94798.34;5010195;28;20289;-90
2023/12/31 00:03:11;;;;;;;;;;;;;;;;;;;;;
2023/12/31 00:05:53;;;;;;;3.60;3.30;;;;;;;7.87;65.76;94797.50;5012987;28;20195;-89
2023/12/31 00:08:20;;;;;;;4.23;3.30;;;;;;;7.93;65.27;94786.50;5015002;28;20237;-89
2023/12/31 00:10:47;;;;;;;3.60;3.27;;;;;;;7.91;65.30;94777.41;5019789;28;20203;-90
2023/12/31 00:15:57;;;;;;;4.97;3.83;;;;;;;7.89;65.55;94777.59;5019529;28;20451;-90
2023/12/31 00:18:24;;;;;;;4.37;3.40;;;;;;;7.85;65.54;94773.03;5014119;28;20229;-90
2023/12/31 00:20:50;;;;;;;4.30;2.90;;;;;;;7.79;65.53;94756.59;5020063;28;20225;-89
2023/12/31 00:23:16;;;;;;;3.97;3.30;;;;;;;7.82;65.17;94755.44;5026749;28;20187;-90
2023/12/31 00:25:58;;;;;;;3.97;3.27;;;;;;;7.73;65.40;94759.06;5025336;28;20223;-90
2023/12/31 00:28:26;;;;;;;3.43;2.83;;;;;;;7.74;65.54;94764.00;5024049;28;20222;-90
2023/12/31 00:30:53;;;;;;;3.30;2.90;;;;;;;7.82;65.17;94765.69;5021986;28;20230;-91
2023/12/31 00:33:39;;;;;;;3.40;3.03;;;;;;;7.83;65.18;94750.13;5014354;28;20202;-90
2023/12/31 00:36:06;;;;;;;3.40;3.10;;;;;;;7.82;65.25;94753.69;5012103;28;20202;-89
2023/12/31 00:38:33;;;;;;;3.70;3.30;;;;;;;7.87;65.20;94753.16;4996424;28;20220;-90
2023/12/31 00:41:01;;;;;;;4.37;3.83;;;;;;;7.81;65.45;94761.53;5011822;28;20198;-90
2023/12/31 00:43:39;;;;;;;10.13;5.83;;;;;;;7.71;65.40;94761.00;5013636;28;20203;-91
2023/12/31 00:46:06;;;;;;;10.47;6.33;;;;;;;7.72;65.71;94772.84;5013748;28;20225;-90
2023/12/31 00:48:33;;;;;;;4.10;3.70;;;;;;;7.66;65.70;94760.78;5002133;28;20254;-90
2023/12/31 00:51:02;;;;;;;3.53;3.10;;;;;;;7.63;65.85;94754.25;5012196;28;20290;-90
2023/12/31 00:56:24;;;;;;;3.40;3.10;;;;;;;7.53;65.34;94723.75;5011299;28;20203;-90
2023/12/31 00:59:03;;;;;;;4.03;3.50;;;;;;;7.45;65.81;94741.81;5012556;28;20226;-90
2023/12/31 01:01:37;;;;;;;3.60;3.20;;;;;;;7.37;66.18;94753.88;5012205;28;20202;-90
2023/12/31 01:06:48;;;;;;;3.93;3.40;;;;;;;7.35;66.21;94764.31;5009616;28;20307;-90
2023/12/31 01:09:37;;;;;;;5.00;3.47;;;;;;;7.36;65.97;94758.22;5040037;22;20317;-90
2023/12/31 01:12:06;;;;;;;4.03;3.63;;;;;;;7.35;65.86;94753.25;5016191;28;20202;-90
2023/12/31 01:14:35;;;;;;;5.40;3.10;;;;;;;7.11;66.87;94762.81;5022509;28;20252;-90
2023/12/31 01:17:02;;;;;;;4.13;3.43;;;;;;;7.02;66.76;94786.88;5029852;28;20771;-91
2023/12/31 01:19:41;;;;;;;4.83;3.30;;;;;;;7.01;67.35;94794.72;5031159;28;20224;-90
2023/12/31 01:22:08;;;;;;;4.47;3.40;;;;;;;7.05;67.04;94790.84;5021622;28;20218;-90
2023/12/31 01:24:34;;;;;;;4.63;3.53;;;;;;;7.14;66.93;94784.69;5011359;28;20201;-90
2023/12/31 01:27:01;;;;;;;3.80;3.40;;;;;;;7.19;66.94;94770.41;5011240;28;20789;-90
2023/12/31 01:29:50;;;;;;;5.17;3.47;;;;;;;7.22;66.59;94759.81;5019956;28;20221;-90
2023/12/31 01:32:17;;;;;;;4.97;3.97;;;;;;;7.16;66.75;94750.25;5019357;28;20201;-90
2023/12/31 01:34:46;;;;;;;4.03;3.57;;;;;;;7.19;66.91;94756.81;5011060;28;20198;-90
2023/12/31 01:37:25;;;;;;;4.30;3.80;;;;;;;7.24;66.74;94749.41;5029767;28;20289;-91
2023/12/31 01:39:52;;;;;;;4.93;3.90;;;;;;;7.25;66.30;94740.75;5007572;28;20234;-90
2023/12/31 01:42:19;;;;;;;4.47;3.50;;;;;;;7.18;66.11;94727.84;5003040;28;20281;-89
2023/12/31 01:44:46;;;;;;;4.37;3.77;;;;;;;7.17;66.32;94716.03;5026430;28;20226;-90
2023/12/31 01:47:31;;;;;;;5.17;3.80;;;;;;;7.18;66.38;94725.28;5028874;28;20226;-90
2023/12/31 01:49:57;;;;;;;4.93;4.43;;;;;;;7.12;66.34;94725.97;5014406;28;20871;-90
2023/12/31 01:52:25;;;;;;;5.43;4.20;;;;;;;7.12;66.49;94736.22;5011978;28;20261;-90
2023/12/31 01:55:17;;;;;;;5.13;4.17;;;;;;;7.12;66.83;94732.91;5008889;28;20278;-91
2023/12/31 01:57:48;;;;;;;5.07;4.07;;;;;;;7.14;66.77;94730.94;5012938;28;20207;-91
2023/12/31 02:00:25;;;;;;;5.30;3.97;;;;;;;7.07;66.41;94720.63;5011034;28;20195;-90
2023/12/31 02:03:01;;;;;;;4.07;3.67;;;;;;;7.09;66.74;94726.34;5026679;28;20207;-90
2023/12/31 02:08:14;;;;;;;4.63;4.00;;;;;;;6.98;66.69;94729.34;5012858;28;20778;-90
2023/12/31 02:10:43;;;;;;;4.30;3.90;;;;;;;6.94;67.04;94720.41;5007441;28;20218;-90
2023/12/31 02:13:26;;;;;;;4.30;3.87;;;;;;;6.92;66.84;94712.94;5012321;28;20747;-90
2023/12/31 02:15:53;;;;;;;4.37;3.97;;;;;;;6.86;66.81;94705.94;5028694;28;20273;-90
2023/12/31 02:18:21;;;;;;;4.40;4.00;;;;;;;6.81;67.11;94715.13;5028345;28;20210;-90
2023/12/31 02:20:48;;;;;;;5.70;3.77;;;;;;;6.73;67.27;94722.88;5009988;28;20205;-90
2023/12/31 02:23:33;;;;;;;4.63;4.10;;;;;;;6.67;67.26;94716.69;5009051;28;20207;-90
2023/12/31 02:26:22;;;;;;;4.73;3.70;;;;;;;6.58;67.49;94717.72;5008390;28;20261;-90
2023/12/31 02:28:48;;;;;;;3.90;3.50;;;;;;;6.49;67.70;94729.78;5007017;28;20226;-90
2023/12/31 02:31:19;;;;;;;5.10;3.80;;;;;;;6.48;67.77;94725.63;5016865;28;20202;-90
2023/12/31 02:34:05;;;;;;;3.97;3.20;;;;;;;6.41;68.16;94732.41;5027645;28;20260;-90
2023/12/31 02:36:32;;;;;;;3.60;3.20;;;;;;;6.45;68.13;94733.66;5016494;28;20944;-90
2023/12/31 02:39:05;;;;;;;3.37;3.07;;;;;;;6.41;67.81;94719.63;5029875;28;20233;-90
2023/12/31 02:41:43;;;;;;;3.53;3.20;;;;;;;6.40;68.28;94727.47;5015822;28;20192;-90
2023/12/31 02:44:10;;;;;;;2.93;2.63;;;;;;;6.44;67.94;94732.06;5008688;28;20401;-91
2023/12/31 02:49:26;;;;;;;2.93;2.63;;;;;;;6.51;67.53;94701.50;5019794;28;20217;-90
2023/12/31 02:51:52;;;;;;;3.00;2.67;;;;;;;6.53;67.44;94700.34;5015652;28;20197;-90
2023/12/31 02:54:21;;;;;;;4.07;2.70;;;;;;;6.42;67.52;94695.63;5009174;28;20194;-90
2023/12/31 02:59:35;;;;;;;4.27;2.90;;;;;;;6.44;67.42;94675.00;5010712;28;20276;-90
2023/12/31 03:02:02;;;;;;;3.10;2.80;;;;;;;6.41;67.04;94665.13;5013320;28;20207;-90
2023/12/31 03:04:46;;;;;;;3.10;2.80;;;;;;;6.39;67.22;94660.19;5009152;28;20195;-90
2023/12/31 03:07:13;;;;;;;3.57;2.63;;;;;;;6.43;67.39;94670.88;5019097;28;20229;-91
2023/12/31 03:09:40;;;;;;;2.70;2.50;;;;;;;6.43;67.31;94664.00;5028055;28;20231;-90
2023/12/31 03:12:08;;;;;;;4.37;2.90;;;;;;;6.32;67.31;94650.84;5019190;28;20672;-91
2023/12/31 03:14:52;;;;;;;3.10;2.70;;;;;;;6.36;67.68;94657.97;5022158;28;20257;-90
2023/12/31 03:17:18;;;;;;;3.10;2.53;;;;;;;6.39;67.40;94644.84;5012922;28;20240;-90
2023/12/31 03:19:45;;;;;;;2.90;2.70;;;;;;;6.47;66.90;94637.13;5012938;28;20241;-90
2023/12/31 03:22:14;;;;;;;3.17;2.60;;;;;;;6.51;66.50;94607.69;5019313;28;20202;-90
2023/12/31 03:24:51;;;;;;;3.20;2.90;;;;;;;6.37;68.05;94631.44;5027800;28;20714;-90
2023/12/31 03:27:19;;;;;;;10.97;9.60;;;;;;;6.38;67.05;94604.13;5014071;28;20227;-88
2023/12/31 03:29:47;;;;;;;6.03;4.63;;;;;;;6.44;66.86;94600.88;5008298;28;20249;-90
2023/12/31 03:32:26;;;;;;;;;;;;;;;;;;;;;
2023/12/31 03:34:56;;;;;;;3.53;2.57;;;;;;;6.18;67.15;94603.81;5005264;28;20203;-90
2023/12/31 03:37:23;;;;;;;3.17;2.87;;;;;;;6.17;67.10;94608.16;5015756;28;20252;-90
2023/12/31 03:39:54;;;;;;;3.00;2.60;;;;;;;6.28;67.12;94601.84;5027838;28;20257;-90
2023/12/31 03:42:33;;;;;;;2.63;2.20;;;;;;;6.36;66.59;94583.06;5007690;28;20226;-90
2023/12/31 03:44:59;;;;;;;2.70;2.50;;;;;;;6.44;66.52;94577.88;5005416;28;20209;-90
2023/12/31 03:47:26;;;;;;;2.57;2.17;;;;;;;6.48;66.24;94568.88;5016705;28;20286;-90
2023/12/31 03:49:53;;;;;;;3.23;2.73;;;;;;;6.46;66.29;94566.50;5007771;28;20746;-90
2023/12/31 03:52:38;;;;;;;2.53;2.20;;;;;;;6.51;66.29;94560.88;5024213;28;20198;-90
2023/12/31 03:55:05;;;;;;;2.87;2.47;;;;;;;6.54;65.86;94556.16;5010371;28;20206;-90
2023/12/31 03:57:34;;;;;;;3.00;2.50;;;;;;;6.57;65.49;94550.69;5018255;28;20202;-90
2023/12/31 04:00:03;;;;;;;2.67;2.43;;;;;;;6.58;65.79;94533.59;5027848;28;20222;-90
2023/12/31 04:02:38;;;;;;;4.37;2.87;;;;;;;6.52;65.63;94532.56;5017103;28;20202;-90
2023/12/31 04:05:06;;;;;;;4.27;2.90;;;;;;;6.41;65.69;94534.75;4995102;28;20198;-90
2023/12/31 04:07:32;;;;;;;2.67;2.47;;;;;;;6.22;66.51;94548.84;5008212;28;20696;-91
2023/12/31 04:09:59;;;;;;;2.80;2.60;;;;;;;6.26;66.28;94549.28;5010052;28;20230;-90
2023/12/31 04:12:26;;;;;;;4.57;2.63;;;;;;;6.26;65.97;94542.41;5024530;28;20290;-90
2023/12/31 04:15:06;;;;;;;3.17;2.60;;;;;;;6.17;66.29;94536.59;5013867;28;20191;-91
2023/12/31 04:20:22;;;;;;;5.67;2.70;;;;;;;6.22;66.30;94538.63;5011164;22;20235;-90
2023/12/31 04:22:49;;;;;;;2.60;2.40;;;;;;;6.27;66.21;94538.09;5007989;28;20216;-90
2023/12/31 04:25:15;;;;;;;3.17;2.60;;;;;;;6.29;65.71;94529.31;5020093;28;20198;-90
2023/12/31 04:27:44;;;;;;;2.80;2.60;;;;;;;6.29;65.78;94513.97;5008058;28;20234;-90
2023/12/31 04:30:23;;;;;;;2.30;2.10;;;;;;;6.29;65.74;94503.75;4989341;28;20917;-91
2023/12/31 04:32:50;;;;;;;2.80;2.53;;;;;;;6.22;65.47;94490.06;5000005;28;20195;-90
2023/12/31 04:35:16;;;;;;;2.60;2.40;;;;;;;6.17;65.92;94500.03;4997226;28;20208;-89
2023/12/31 04:37:43;;;;;;;2.83;2.50;;;;;;;6.02;65.92;94489.00;4990113;28;20196;-90
2023/12/31 04:40:29;;;;;;;2.70;2.50;;;;;;;6.00;66.12;94501.94;4998721;28;20250;-90
2023/12/31 04:43:04;;;;;;;2.67;2.10;;;;;;;5.93;66.10;94492.63;4995737;28;20586;-90
2023/12/31 04:45:47;;;;;;;2.63;2.30;;;;;;;5.78;66.70;94495.91;5006234;28;20208;-90
2023/12/31 04:48:14;;;;;;;2.73;2.20;;;;;;;5.66;66.54;94484.53;4990796;28;20227;-91
2023/12/31 04:50:42;;;;;;;2.90;2.17;;;;;;;5.71;66.29;94482.25;4998928;28;20199;-90
2023/12/31 04:53:23;;;;;;;2.40;2.00;;;;;;;5.71;66.38;94477.16;4993572;28;20204;-91
2023/12/31 04:55:49;;;;;;;2.00;1.80;;;;;;;5.77;65.91;94461.13;4994810;28;20199;-90
2023/12/31 04:58:17;;;;;;;2.30;2.00;;;;;;;5.75;66.01;94440.09;4998129;28;20221;-89
2023/12/31 05:00:44;;;;;;;2.50;1.90;;;;;;;5.77;65.68;94432.25;5011082;28;20203;-88
2023/12/31 05:03:12;;;;;;;2.10;1.90;;;;;;;5.76;65.36;94423.81;5010373;28;20285;-89
2023/12/31 05:05:47;;;;;;;1.80;1.70;;;;;;;5.79;65.60;94413.22;5002525;28;20191;-89
2023/12/31 05:08:17;;;;;;;2.53;2.10;;;;;;;5.91;65.42;94413.63;4989500;28;20309;-88
2023/12/31 05:10:43;;;;;;;2.20;2.00;;;;;;;6.01;65.67;94421.00;4992297;28;20203;-88
2023/12/31 05:13:10;;;;;;;2.63;1.97;;;;;;;6.01;64.95;94403.91;5008927;28;20718;-88
2023/12/31 05:15:54;;;;;;;2.10;1.90;;;;;;;6.05;64.89;94397.47;4994227;28;20199;-89
2023/12/31 05:18:23;;;;;;;2.00;1.80;;;;;;;6.00;64.42;94361.44;4971507;28;20319;-88
2023/12/31 05:20:51;;;;;;;2.23;2.00;;;;;;;6.06;64.38;94359.94;5007241;28;20202;-88
2023/12/31 05:25:59;;;;;;;1.77;1.67;;;;;;;6.05;63.69;94318.28;4978956;28;20681;-88
2023/12/31 05:28:26;;;;;;;2.53;1.63;;;;;;;6.09;63.46;94300.81;4997677;28;20306;-88
2023/12/31 05:30:53;;;;;;;1.67;1.50;;;;;;;6.05;63.36;94299.59;4995487;28;20283;-88
2023/12/31 05:33:36;;;;;;;1.83;1.60;;;;;;;6.06;63.16;94288.41;5002662;28;20197;-88
2023/12/31 05:36:03;;;;;;;2.20;1.37;;;;;;;6.07;62.99;94284.88;4982908;28;20211;-88
2023/12/31 05:38:29;;;;;;;2.40;1.50;;;;;;;6.13;63.05;94282.41;4990706;28;20230;-88
2023/12/31 05:40:56;;;;;;;1.63;1.50;;;;;;;6.18;62.53;94269.06;4988297;28;20282;-88
2023/12/31 05:43:37;;;;;;;1.57;1.47;;;;;;;6.22;62.74;94270.28;5004102;28;20226;-88
2023/12/31 05:46:04;;;;;;;1.43;1.33;;;;;;;6.27;62.44;94252.66;4990236;28;20195;-88
2023/12/31 05:48:31;;;;;;;1.60;1.40;;;;;;;6.31;62.15;94238.53;4990232;28;20759;-89
2023/12/31 05:50:59;;;;;;;1.80;1.70;;;;;;;6.28;61.58;94213.34;4990363;28;20192;-89
2023/12/31 05:53:38;;;;;;;2.43;1.63;;;;;;;6.31;62.00;94219.88;4990996;28;20286;-89
2023/12/31 05:56:05;;;;;;;1.90;1.70;;;;;;;6.33;61.90;94228.94;4991525;28;20620;-88
2023/12/31 05:58:31;;;;;;;2.07;1.87;;;;;;;6.33;62.04;94226.38;5006411;28;20273;-88
2023/12/31 06:01:00;;;;;;;1.70;1.60;;;;;;;6.31;61.68;94210.44;5004810;28;20528;-88
2023/12/31 06:03:40;;;;;;;1.90;1.60;;;;;;;6.33;61.85;94208.50;4991049;28;20224;-88
2023/12/31 06:06:08;;;;;;;1.73;1.63;;;;;;;6.37;62.36;94232.69;4990679;28;20301;-88
2023/12/31 06:08:35;;;;;;;2.03;1.63;;;;;;;6.36;62.25;94218.31;4989542;28;20846;-88
2023/12/31 06:11:02;;;;;;;1.90;1.73;;;;;;;6.38;62.21;94228.34;5000337;28;20286;-89
2023/12/31 06:16:15;;;;;;;1.73;1.63;;;;;;;6.30;61.97;94193.50;5000366;28;20195;-89
2023/12/31 06:18:45;;;;;;;1.70;1.60;;;;;;;6.25;61.79;94185.59;4990740;28;20703;-88
2023/12/31 06:21:23;;;;;;;1.80;1.70;;;;;;;6.28;61.71;94189.56;4997465;28;20214;-89
2023/12/31 06:23:52;;;;;;;2.30;1.80;;;;;;;6.24;61.71;94184.81;4991718;28;20238;-88
2023/12/31 06:26:18;;;;;;;1.73;1.63;;;;;;;6.24;61.66;94184.81;4990125;28;20749;-88
2023/12/31 06:28:45;;;;;;;1.70;1.53;;;;;;;6.25;61.16;94167.72;4995744;28;20223;-89
2023/12/31 06:31:25;;;;;;;5.33;4.93;;;;;;;6.15;61.21;94162.94;4989454;28;20200;-89
2023/12/31 06:33:53;;;;;;;2.10;1.90;;;;;;;6.05;61.91;94182.09;4990380;28;20396;-88
2023/12/31 06:36:21;;;;;;;2.00;1.80;;;;;;;6.02;61.91;94182.44;4975266;28;20258;-89
2023/12/31 06:39:07;;;;;;;1.50;1.40;;;;;;;5.95;61.49;94154.31;4990588;28;20842;-89
2023/12/31 06:41:35;;;;;;;2.20;1.57;;;;;;;6.06;61.94;94163.22;4984996;28;20734;-88
2023/12/31 06:44:03;;;;;;;3.23;1.60;;;;;;;6.11;61.16;94148.16;5008586;28;20210;-89
2023/12/31 06:46:43;;;;;;;4.53;4.13;;;;;;;6.06;61.12;94130.81;5001880;28;20300;-88
2023/12/31 06:49:11;;;;;;;2.00;1.80;;;;;;;6.03;61.09;94135.50;4989918;28;20632;-88
2023/12/31 06:51:39;;;;;;;3.13;2.10;;;;;;;5.94;61.27;94132.28;4993456;28;20214;-89
2023/12/31 06:56:50;;;;;;;2.43;2.10;;;;;;;5.62;61.65;94127.63;4997082;28;20231;-90
2023/12/31 06:59:28;;;;;;;2.33;2.13;;;;;;;5.60;62.14;94145.69;4995573;28;20222;-91
2023/12/31 07:02:27;;;;;;;1.70;1.60;;;;;;;5.49;62.41;94151.25;5000542;28;20680;-89
2023/12/31 07:05:08;;;;;;;2.77;1.70;;;;;;;5.50;62.66;94152.84;5000177;28;20217;-88
2023/12/31 07:07:51;;;;;;;1.67;1.57;;;;;;;5.48;62.00;94139.47;4995666;28;20203;-88
2023/12/31 07:10:23;;;;;;;2.70;1.67;;;;;;;5.46;62.15;94124.34;4995468;28;20226;-91
2023/12/31 07:13:16;;;;;;;2.00;1.80;;;;;;;5.38;62.16;94113.47;4982574;28;20242;-91
2023/12/31 07:15:48;;;;;;;1.60;1.50;;;;;;;5.35;62.12;94106.16;5005689;28;20285;-91
2023/12/31 07:23:26;;;;;;;1.40;1.30;;;;;;;5.58;61.46;94080.47;4535624;23;20240;-88
2023/12/31 07:26:10;;;;;;;;;;;;;;;;;;;;;
2023/12/31 07:28:43;;;;;;;1.20;1.10;;;;;;;5.57;61.15;94041.41;5025172;28;20819;-88
2023/12/31 07:39:35;;;;;;;1.33;1.23;;;;;;;5.83;60.44;94015.25;5014884;28;20226;-89
2023/12/31 07:42:17;;;;;;;1.53;1.40;;;;;;;5.88;59.90;93992.53;5021107;28;20210;-88
2023/12/31 07:44:45;;;;;;;2.00;1.30;;;;;;;6.03;59.70;93987.34;5023495;28;20630;-90
2023/12/31 07:47:16;;;;;;;2.40;1.30;;;;;;;6.15;59.45;93973.06;5015056;28;20218;-89
2023/12/31 07:49:47;;;;;;;2.00;1.43;;;;;;;6.26;61.00;94033.84;5008589;28;20227;-83
2023/12/31 07:52:22;;;;;;;1.77;1.20;;;;;;;6.39;59.42;93997.34;5019769;28;20198;-89
2023/12/31 07:54:50;;;;;;;1.63;1.43;;;;;;;6.49;59.08;93978.13;5008020;28;20619;-89
2023/12/31 07:57:57;;;;;;;1.50;1.40;;;;;;;6.53;59.10;93970.88;5014012;28;20241;-89
2023/12/31 08:03:35;;;;;;;1.67;1.50;;;;;;;6.45;58.77;93948.03;4983937;28;20214;-89
2023/12/31 08:06:03;;;;;;;1.73;1.40;;;;;;;6.53;58.74;93958.09;5006134;28;20206;-89
2023/12/31 08:08:32;;;;;;;1.40;1.30;;;;;;;6.47;58.99;93946.84;5012757;28;20224;-91
2023/12/31 08:11:16;;;;;;;2.30;1.40;;;;;;;6.41;59.17;93965.50;5014904;28;20219;-90
2023/12/31 08:13:43;;;;;;;2.80;1.40;;;;;;;6.52;58.66;93946.28;5009532;28;20221;-91
2023/12/31 08:16:19;;;;;;;1.50;1.40;;;;;;;6.65;58.78;93946.31;5024672;28;20202;-92
2023/12/31 08:18:53;;;;;;;3.17;1.67;;;;;;;6.74;58.62;93929.03;5018103;28;20248;-90
2023/12/31 08:21:29;;;;;;;1.83;1.43;;;;;;;6.71;58.60;93944.78;5021623;28;20260;-88
2023/12/31 08:23:55;;;;;;;2.40;1.80;;;;;;;6.71;58.95;93960.13;5010516;28;20198;-91
2023/12/31 08:26:33;;;;;;;6.53;4.00;;;;;;;6.80;60.67;94056.13;5018244;28;20206;-92
2023/12/31 08:28:59;;;;;;;8.67;5.93;;;;;;;6.80;61.52;94122.63;5025298;28;20943;-88
2023/12/31 08:34:18;;;;;;;2.97;2.30;;;;;;;6.84;60.73;94085.47;5028870;28;20205;-91
2023/12/31 08:36:54;;;;;;;2.23;1.90;;;;;;;7.05;60.21;94075.13;5029440;28;20645;-90
2023/12/31 08:39:37;;;;;;;2.27;1.90;;;;;;;7.27;60.31;94073.25;5013325;28;20214;-90
2023/12/31 08:42:07;;;;;;;3.57;1.83;;;;;;;7.15;59.17;94006.44;5009313;28;20241;-91
2023/12/31 08:44:34;;;;;;;1.70;1.60;;;;;;;7.04;58.76;94011.34;5009680;28;20199;-88
2023/12/31 08:47:22;;;;;;;1.90;1.60;;;;;;;7.11;58.18;93976.34;5002244;28;20649;-91
2023/12/31 08:59:08;;;;;;;1.77;1.60;;;;;;;7.73;56.50;93867.59;4975936;28;20307;-90
2023/12/31 09:01:37;;;;;;;1.80;1.60;;;;;;;7.77;55.88;93832.91;5008970;28;20226;-90
2023/12/31 09:04:04;;;;;;;1.70;1.60;;;;;;;7.80;56.24;93850.44;5011351;28;20210;-87
2023/12/31 09:06:44;;;;;;;7.30;1.97;;;;;;;8.04;67.96;94402.56;5019388;28;20248;-92
2023/12/31 09:09:14;;;;;;;4.60;2.17;;;;;;;8.41;65.20;94314.97;5015439;28;20218;-92
2023/12/31 09:11:45;;;;;;;4.27;2.27;;;;;;;8.66;65.79;94392.16;5006219;28;20214;-92
2023/12/31 09:14:32;;;;;;;;;;;;;;;;;;;;;
2023/12/31 09:17:22;;;;;;;1.70;1.60;;;;;;;8.51;55.08;93815.22;5010943;28;20191;-90
2023/12/31 09:19:58;;;;;;;1.70;1.57;;;;;;;8.31;54.71;93769.16;5010004;28;20512;-90
2023/12/31 09:25:15;;;;;;;2.00;1.80;;;;;;;7.91;55.38;93801.91;5022945;28;20647;-90
2023/12/31 09:27:58;;;;;;;1.80;1.67;;;;;;;7.94;55.84;93823.78;5013323;28;20207;-90
2023/12/31 09:30:28;;;;;;;1.60;1.50;;;;;;;7.99;56.14;93836.78;5009762;28;20619;-89
2023/12/31 09:33:15;;;;;;;1.93;1.50;;;;;;;7.93;55.25;93788.91;5010132;28;20198;-90
2023/12/31 09:35:42;;;;;;;1.70;1.60;;;;;;;7.90;55.48;93792.66;5010730;28;20261;-90
2023/12/31 09:38:10;;;;;;;2.33;1.77;;;;;;;7.79;55.71;93808.66;5010141;28;20665;-91
2023/12/31 09:40:36;;;;;;;2.33;1.80;;;;;;;7.81;56.09;93827.19;5012279;28;20712;-86
2023/12/31 09:43:04;;;;;;;2.13;1.93;;;;;;;7.79;56.30;93843.75;5011289;28;20210;-86
2023/12/31 09:45:32;;;;;;;3.77;1.70;;;;;;;7.82;55.70;93828.75;5014972;28;20211;-88
2023/12/31 09:48:05;;;;;;;2.20;1.90;;;;;;;7.90;56.14;93848.22;5010681;28;20994;-90
2023/12/31 09:56:30;;;;;;;;;;;;;;;;;;;;;
2023/12/31 09:59:16;;;;;;;2.00;1.80;;;;;;;8.13;55.94;93832.38;5000952;28;20223;-91
2023/12/31 10:02:11;;;;;;;2.50;1.90;;;;;;;8.19;56.29;93850.28;5009865;28;20591;-90
2023/12/31 10:04:38;;;;;;;3.43;2.00;;;;;;;8.28;56.41;93853.38;5000111;28;20317;-89
2023/12/31 10:07:30;;;;;;;2.73;2.30;;;;;;;8.30;55.61;93828.34;5009707;28;20695;-90
2023/12/31 10:10:27;;;;;;;3.83;3.20;;;;;;;8.37;55.86;93833.47;4993311;28;20597;-91
2023/12/31 10:13:02;;;;;;;3.40;2.50;;;;;;;8.43;55.68;93837.78;5014389;28;20284;-90
2023/12/31 10:15:52;;;;;;;2.20;2.00;;;;;;;8.47;55.24;93808.94;5008843;28;20203;-88
2023/12/31 10:18:25;;;;;;;2.43;2.10;;;;;;;8.50;55.61;93811.09;5003060;28;20273;-89
2023/12/31 10:20:52;;;;;;;2.87;2.13;;;;;;;8.58;55.24;93810.06;5007597;28;20257;-88
2023/12/31 10:23:28;;;;;;;3.00;2.10;;;;;;;8.68;54.93;93799.34;5007865;28;20217;-89
2023/12/31 10:25:58;;;;;;;5.27;2.30;;;;;;;8.72;55.12;93851.81;5008024;28;20607;-89
2023/12/31 10:28:41;;;;;;;3.23;2.17;;;;;;;8.62;54.86;93813.78;5018533;28;20233;-89
2023/12/31 10:31:07;;;;;;;9.50;7.80;;;;;;;8.57;55.32;93868.28;5019463;28;20232;-90
2023/12/31 10:33:37;;;;;;;3.00;2.70;;;;;;;8.53;56.08;93902.22;5009407;28;20281;-88
2023/12/31 10:36:04;;;;;;;2.93;2.50;;;;;;;8.57;56.32;93888.78;5026537;28;20225;-87
2023/12/31 10:38:43;;;;;;;4.37;2.60;;;;;;;8.68;56.07;93897.59;5008589;28;20770;-87
2023/12/31 10:41:14;;;;;;;2.60;2.40;;;;;;;8.74;55.69;93862.66;5003677;28;20183;-90
2023/12/31 10:43:41;;;;;;;4.13;2.67;;;;;;;8.80;55.64;93857.47;4988947;28;20206;-89
2023/12/31 10:46:08;;;;;;;3.20;2.60;;;;;;;8.90;55.55;93844.19;5007176;28;20201;-91
2023/12/31 10:48:48;;;;;;;2.63;2.40;;;;;;;8.95;55.18;93822.03;5008325;28;20230;-90
2023/12/31 10:51:24;;;;;;;3.67;2.90;;;;;;;9.00;55.85;93839.38;4988951;28;20253;-90
2023/12/31 10:53:52;;;;;;;3.03;2.70;;;;;;;9.10;55.49;93852.50;5007117;28;20206;-88
2023/12/31 10:56:30;;;;;;;4.73;2.93;;;;;;;9.17;55.27;93840.41;5009404;28;20218;-89
2023/12/31 10:58:59;;;;;;;4.43;2.93;;;;;;;9.22;55.68;93814.13;5006935;28;20234;-88
2023/12/31 11:01:26;;;;;;;3.63;2.60;;;;;;;9.30;54.98;93795.84;5006718;28;20559;-89
2023/12/31 11:03:55;;;;;;;11.77;9.87;;;;;;;9.31;54.75;93774.31;5008013;28;20210;-88
2023/12/31 11:06:37;;;;;;;12.50;8.30;;;;;;;9.42;54.18;93755.66;5003650;28;20685;-88
2023/12/31 11:09:04;;;;;;;4.50;4.00;;;;;;;9.47;53.95;93719.81;5013488;28;20230;-88
2023/12/31 11:11:31;;;;;;;4.07;2.87;;;;;;;9.55;53.75;93711.81;5007497;28;20370;-89
2023/12/31 11:14:09;;;;;;;;;;;;;;;;;;;;;
2023/12/31 11:16:53;;;;;;;3.03;2.50;;;;;;;9.73;53.40;93687.09;5007784;28;20711;-88
2023/12/31 11:19:53;;;;;;;3.00;2.70;;;;;;;9.82;53.13;93667.78;5008182;28;20226;-87
2023/12/31 11:22:43;;;;;;;3.07;2.67;;;;;;;9.86;53.09;93648.38;4995810;28;20652;-88
2023/12/31 11:25:10;;;;;;;2.93;2.47;;;;;;;9.94;52.99;93659.13;5007596;28;20694;-88
2023/12/31 11:27:47;;;;;;;;;;;;;;;;;;;;;
2023/12/31 11:30:14;;;;;;;3.97;2.30;;;;;;;10.00;52.81;93630.00;5007875;28;20222;-88
2023/12/31 11:32:41;;;;;;;2.70;2.50;;;;;;;9.82;51.65;93558.06;5008871;28;20602;-88
2023/12/31 11:35:12;;;;;;;3.57;2.30;;;;;;;9.93;52.35;93588.16;5005233;28;20215;-88
2023/12/31 11:37:49;;;;;;;3.10;2.30;;;;;;;10.00;52.88;93617.13;4993937;28;20572;-90
2023/12/31 11:40:23;;;;;;;3.33;3.03;;;;;;;10.05;52.48;93598.44;5006639;28;20227;-87
2023/12/31 11:42:50;;;;;;;3.37;2.73;;;;;;;10.16;52.76;93584.84;4990127;28;20285;-87
2023/12/31 11:45:40;;;;;;;2.90;2.60;;;;;;;10.25;51.87;93575.81;5006491;28;20675;-87
2023/12/31 11:48:38;;;;;;;3.20;2.40;;;;;;;10.35;52.02;93554.69;5027323;28;20703;-87
2023/12/31 11:51:30;;;;;;;3.20;2.80;;;;;;;10.47;52.18;93552.09;5027285;28;20276;-87
2023/12/31 11:54:30;;;;;;;3.20;2.60;;;;;;;10.54;51.89;93527.03;5008336;28;20205;-87
2023/12/31 11:57:03;;;;;;;3.07;2.33;;;;;;;10.54;51.39;93478.94;5007080;28;20743;-89
2023/12/31 11:59:44;;;;;;;2.47;2.23;;;;;;;10.61;51.31;93471.06;5024087;28;20238;-89
2023/12/31 12:02:34;;;;;;;;;;;;;;;;;;;;;
2023/12/31 12:05:04;;;;;;;3.57;3.13;;;;;;;10.67;50.95;93441.84;5011853;28;20198;-90
2023/12/31 12:07:36;;;;;;;4.23;3.10;;;;;;;10.70;51.43;93474.88;5016042;28;20203;-90
2023/12/31 12:10:29;;;;;;;3.23;2.80;;;;;;;10.64;51.31;93466.25;5010214;28;20250;-89
2023/12/31 12:13:01;;;;;;;2.90;2.60;;;;;;;10.51;50.62;93412.50;4969232;28;20905;-87
2023/12/31 12:15:57;;;;;;;2.90;2.53;;;;;;;10.39;50.93;93409.94;4992779;28;20234;-88
2023/12/31 12:18:32;;;;;;;2.60;2.40;;;;;;;10.44;51.11;93409.28;4993589;28;20601;-88
2023/12/31 12:20:59;;;;;;;2.70;2.33;;;;;;;10.44;51.04;93416.19;4992416;28;20573;-88
2023/12/31 12:23:30;;;;;;;6.27;2.87;;;;;;;10.45;50.92;93405.69;5008662;28;20202;-88
2023/12/31 12:26:16;;;;;;;2.53;2.20;;;;;;;10.43;50.87;93399.19;5010732;28;20290;-88
2023/12/31 12:28:43;;;;;;;3.70;2.70;;;;;;;10.42;51.07;93405.34;5008644;28;20222;-88
2023/12/31 12:31:19;;;;;;;3.33;2.40;;;;;;;10.41;51.29;93393.50;5010878;28;20314;-88
2023/12/31 12:33:54;;;;;;;3.47;2.23;;;;;;;10.36;51.05;93397.56;5011297;28;20252;-88
2023/12/31 12:36:21;;;;;;;3.80;2.70;;;;;;;10.33;51.55;93420.38;5016042;28;20249;-88
2023/12/31 12:38:59;;;;;;;3.47;2.40;;;;;;;10.33;51.74;93431.44;5015869;28;20215;-87
2023/12/31 12:41:35;;;;;;;3.67;2.30;;;;;;;10.34;51.66;93435.59;5010114;28;20670;-88
2023/12/31 12:44:13;;;;;;;3.27;2.50;;;;;;;10.45;52.30;93477.72;5011964;28;20205;-87
2023/12/31 12:46:57;;;;;;;4.23;3.40;;;;;;;10.54;51.55;93449.84;5011775;28;20199;-87
2023/12/31 12:49:24;;;;;;;3.37;2.50;;;;;;;10.61;51.55;93466.72;5011704;28;20246;-87
2023/12/31 12:51:51;;;;;;;4.07;2.40;;;;;;;10.62;51.74;93457.97;5013233;28;20850;-88
2023/12/31 12:54:39;;;;;;;2.83;2.53;;;;;;;10.61;51.41;93460.78;5014295;28;20278;-88
2023/12/31 12:57:07;;;;;;;2.60;2.30;;;;;;;10.57;51.66;93437.31;5009525;28;20217;-87
2023/12/31 12:59:33;;;;;;;2.00;1.90;;;;;;;10.56;51.54;93428.03;5010775;28;20712;-87
2023/12/31 13:02:26;;;;;;;2.30;1.90;;;;;;;10.64;51.08;93409.66;5012203;28;20238;-87
2023/12/31 13:04:55;;;;;;;2.30;2.10;;;;;;;10.70;51.35;93403.59;5018322;28;20206;-87
2023/12/31 13:10:04;;;;;;;2.07;1.87;;;;;;;10.79;50.11;93357.66;5005611;28;20235;-88
2023/12/31 13:12:32;;;;;;;3.80;1.87;;;;;;;10.84;50.26;93352.59;5009556;28;20310;-88
2023/12/31 13:14:59;;;;;;;2.20;2.00;;;;;;;10.84;50.02;93329.44;5010959;28;20198;-88
2023/12/31 13:17:37;;;;;;;2.90;2.20;;;;;;;10.81;49.65;93304.16;5011442;28;20207;-88
2023/12/31 13:20:10;;;;;;;2.23;1.83;;;;;;;10.78;49.47;93289.19;5010822;28;20222;-88
2023/12/31 13:22:37;;;;;;;2.00;1.80;;;;;;;10.78;49.70;93299.47;5011028;28;20218;-89
2023/12/31 13:25:16;;;;;;;1.90;1.70;;;;;;;10.73;49.45;93284.75;5010438;28;20900;-88
2023/12/31 13:27:43;;;;;;;2.33;1.60;;;;;;;10.68;49.66;93282.09;5010933;28;20191;-88